sensor_id;sensor_type;location;lat;lon;timestamp;P1;durP1;ratioP1;P2;durP2;ratioP2
3217;SDS011;1621;49.702;8.618;2023-07-31T00:02:20;5.57;;;1.90;;
3217;SDS011;1621;49.702;8.618;2023-07-31T00:04:46;6.47;;;1.90;;
3217;SDS011;1621;49.702;8.618;2023-07-31T00:07:14;7.13;;;2.13;;
3217;SDS011;1621;49.702;8.618;2023-07-31T00:09:40;5.57;;;2.07;;
3217;SDS011;1621;49.702;8.618;2023-07-31T00:12:08;6.07;;;2.20;;
3217;SDS011;1621;49.702;8.618;2023-07-31T00:14:34;5.20;;;2.60;;
3217;SDS011;1621;49.702;8.618;2023-07-31T00:17:00;4.20;;;1.77;;
3217;SDS011;1621;49.702;8.618;2023-07-31T00:19:27;5.67;;;2.30;;
3217;SDS011;1621;49.702;8.618;2023-07-31T00:21:53;6.10;;;2.30;;
3217;SDS011;1621;49.702;8.618;2023-07-31T00:24:19;4.50;;;2.10;;
3217;SDS011;1621;49.702;8.618;2023-07-31T00:26:45;3.80;;;1.87;;
3217;SDS011;1621;49.702;8.618;2023-07-31T00:29:13;4.20;;;1.93;;
3217;SDS011;1621;49.702;8.618;2023-07-31T00:31:38;5.13;;;2.07;;
3217;SDS011;1621;49.702;8.618;2023-07-31T00:34:05;9.43;;;2.40;;
3217;SDS011;1621;49.702;8.618;2023-07-31T00:36:31;6.50;;;2.10;;
3217;SDS011;1621;49.702;8.618;2023-07-31T00:38:57;6.63;;;2.17;;
3217;SDS011;1621;49.702;8.618;2023-07-31T00:41:24;6.40;;;2.27;;
3217;SDS011;1621;49.702;8.618;2023-07-31T00:43:50;5.20;;;2.00;;
3217;SDS011;1621;49.702;8.618;2023-07-31T00:46:17;5.33;;;2.40;;
3217;SDS011;1621;49.702;8.618;2023-07-31T00:48:44;5.40;;;2.20;;
3217;SDS011;1621;49.702;8.618;2023-07-31T00:51:10;6.07;;;2.27;;
3217;SDS011;1621;49.702;8.618;2023-07-31T00:53:36;4.50;;;2.37;;
3217;SDS011;1621;49.702;8.618;2023-07-31T00:56:03;5.37;;;2.17;;
3217;SDS011;1621;49.702;8.618;2023-07-31T00:58:30;8.00;;;2.17;;
3217;SDS011;1621;49.702;8.618;2023-07-31T01:00:56;6.63;;;2.70;;
3217;SDS011;1621;49.702;8.618;2023-07-31T01:03:24;4.40;;;2.03;;
3217;SDS011;1621;49.702;8.618;2023-07-31T01:05:52;5.97;;;2.13;;
3217;SDS011;1621;49.702;8.618;2023-07-31T01:08:24;6.17;;;2.33;;
3217;SDS011;1621;49.702;8.618;2023-07-31T01:10:56;4.73;;;1.90;;
3217;SDS011;1621;49.702;8.618;2023-07-31T01:13:22;3.50;;;1.70;;
3217;SDS011;1621;49.702;8.618;2023-07-31T01:15:48;8.83;;;3.30;;
3217;SDS011;1621;49.702;8.618;2023-07-31T01:18:14;4.83;;;1.93;;
3217;SDS011;1621;49.702;8.618;2023-07-31T01:20:42;7.10;;;2.40;;
3217;SDS011;1621;49.702;8.618;2023-07-31T01:23:22;4.67;;;2.50;;
3217;SDS011;1621;49.702;8.618;2023-07-31T01:25:56;12.37;;;2.30;;
3217;SDS011;1621;49.702;8.618;2023-07-31T01:28:25;5.33;;;2.20;;
3217;SDS011;1621;49.702;8.618;2023-07-31T01:30:54;7.37;;;2.63;;
3217;SDS011;1621;49.702;8.618;2023-07-31T01:33:21;5.07;;;1.90;;
3217;SDS011;1621;49.702;8.618;2023-07-31T01:35:47;5.50;;;1.87;;
3217;SDS011;1621;49.702;8.618;2023-07-31T01:38:14;4.53;;;2.00;;
3217;SDS011;1621;49.702;8.618;2023-07-31T01:40:41;4.63;;;2.10;;
3217;SDS011;1621;49.702;8.618;2023-07-31T01:43:09;6.30;;;2.27;;
3217;SDS011;1621;49.702;8.618;2023-07-31T01:45:35;7.33;;;3.00;;
3217;SDS011;1621;49.702;8.618;2023-07-31T01:48:01;9.20;;;2.20;;
3217;SDS011;1621;49.702;8.618;2023-07-31T01:50:28;7.03;;;2.60;;
3217;SDS011;1621;49.702;8.618;2023-07-31T01:52:54;5.73;;;2.37;;
3217;SDS011;1621;49.702;8.618;2023-07-31T01:55:20;7.93;;;2.20;;
3217;SDS011;1621;49.702;8.618;2023-07-31T01:57:46;5.43;;;1.93;;
3217;SDS011;1621;49.702;8.618;2023-07-31T02:00:15;5.17;;;2.57;;
3217;SDS011;1621;49.702;8.618;2023-07-31T02:02:41;4.90;;;2.20;;
3217;SDS011;1621;49.702;8.618;2023-07-31T02:05:07;5.93;;;2.33;;
3217;SDS011;1621;49.702;8.618;2023-07-31T02:07:34;5.57;;;2.40;;
3217;SDS011;1621;49.702;8.618;2023-07-31T02:10:00;5.90;;;2.10;;
3217;SDS011;1621;49.702;8.618;2023-07-31T02:12:26;4.53;;;2.10;;
3217;SDS011;1621;49.702;8.618;2023-07-31T02:14:55;7.60;;;2.20;;
3217;SDS011;1621;49.702;8.618;2023-07-31T02:17:23;4.97;;;2.40;;
3217;SDS011;1621;49.702;8.618;2023-07-31T02:19:49;13.37;;;2.63;;
3217;SDS011;1621;49.702;8.618;2023-07-31T02:22:15;4.57;;;2.10;;
3217;SDS011;1621;49.702;8.618;2023-07-31T02:24:41;8.53;;;2.23;;
3217;SDS011;1621;49.702;8.618;2023-07-31T02:27:08;4.67;;;1.90;;
3217;SDS011;1621;49.702;8.618;2023-07-31T02:29:34;5.23;;;2.23;;
3217;SDS011;1621;49.702;8.618;2023-07-31T02:32:00;4.17;;;2.07;;
3217;SDS011;1621;49.702;8.618;2023-07-31T02:34:28;5.17;;;2.53;;
3217;SDS011;1621;49.702;8.618;2023-07-31T02:36:54;7.30;;;2.30;;
3217;SDS011;1621;49.702;8.618;2023-07-31T02:39:20;5.70;;;2.30;;
3217;SDS011;1621;49.702;8.618;2023-07-31T02:41:46;6.93;;;2.17;;
3217;SDS011;1621;49.702;8.618;2023-07-31T02:44:13;7.47;;;2.00;;
3217;SDS011;1621;49.702;8.618;2023-07-31T02:46:39;4.93;;;2.10;;
3217;SDS011;1621;49.702;8.618;2023-07-31T02:49:05;7.47;;;2.63;;
3217;SDS011;1621;49.702;8.618;2023-07-31T02:51:33;5.90;;;2.83;;
3217;SDS011;1621;49.702;8.618;2023-07-31T02:53:59;5.47;;;2.40;;
3217;SDS011;1621;49.702;8.618;2023-07-31T02:56:25;4.87;;;2.10;;
3217;SDS011;1621;49.702;8.618;2023-07-31T02:58:52;4.50;;;2.13;;
3217;SDS011;1621;49.702;8.618;2023-07-31T03:01:18;4.70;;;2.17;;
3217;SDS011;1621;49.702;8.618;2023-07-31T03:03:44;13.93;;;2.27;;
3217;SDS011;1621;49.702;8.618;2023-07-31T03:06:10;8.70;;;3.20;;
3217;SDS011;1621;49.702;8.618;2023-07-31T03:08:38;5.37;;;2.30;;
3217;SDS011;1621;49.702;8.618;2023-07-31T03:11:04;10.33;;;3.10;;
3217;SDS011;1621;49.702;8.618;2023-07-31T03:13:31;6.57;;;2.63;;
3217;SDS011;1621;49.702;8.618;2023-07-31T03:15:57;7.80;;;2.90;;
3217;SDS011;1621;49.702;8.618;2023-07-31T03:18:23;5.97;;;2.37;;
3217;SDS011;1621;49.702;8.618;2023-07-31T03:20:50;6.77;;;2.93;;
3217;SDS011;1621;49.702;8.618;2023-07-31T03:23:16;7.27;;;2.80;;
3217;SDS011;1621;49.702;8.618;2023-07-31T03:25:56;7.13;;;2.30;;
3217;SDS011;1621;49.702;8.618;2023-07-31T03:28:22;8.97;;;3.23;;
3217;SDS011;1621;49.702;8.618;2023-07-31T03:30:48;8.50;;;3.03;;
3217;SDS011;1621;49.702;8.618;2023-07-31T03:33:15;8.00;;;2.40;;
3217;SDS011;1621;49.702;8.618;2023-07-31T03:35:41;8.80;;;3.00;;
3217;SDS011;1621;49.702;8.618;2023-07-31T03:38:07;10.03;;;3.47;;
3217;SDS011;1621;49.702;8.618;2023-07-31T03:40:33;12.00;;;3.47;;
3217;SDS011;1621;49.702;8.618;2023-07-31T03:43:02;7.53;;;3.23;;
3217;SDS011;1621;49.702;8.618;2023-07-31T03:45:28;6.43;;;3.03;;
3217;SDS011;1621;49.702;8.618;2023-07-31T03:47:55;6.83;;;2.80;;
3217;SDS011;1621;49.702;8.618;2023-07-31T03:50:21;5.10;;;2.40;;
3217;SDS011;1621;49.702;8.618;2023-07-31T03:52:47;8.13;;;2.60;;
3217;SDS011;1621;49.702;8.618;2023-07-31T03:55:13;6.50;;;2.47;;
3217;SDS011;1621;49.702;8.618;2023-07-31T03:57:40;7.50;;;2.90;;
3217;SDS011;1621;49.702;8.618;2023-07-31T04:00:08;6.17;;;2.50;;
3217;SDS011;1621;49.702;8.618;2023-07-31T04:02:34;6.90;;;3.00;;
3217;SDS011;1621;49.702;8.618;2023-07-31T04:05:01;8.70;;;2.47;;
3217;SDS011;1621;49.702;8.618;2023-07-31T04:07:27;5.13;;;2.30;;
3217;SDS011;1621;49.702;8.618;2023-07-31T04:09:54;5.43;;;2.40;;
3217;SDS011;1621;49.702;8.618;2023-07-31T04:12:20;5.20;;;2.50;;
3217;SDS011;1621;49.702;8.618;2023-07-31T04:14:46;8.70;;;2.30;;
3217;SDS011;1621;49.702;8.618;2023-07-31T04:17:14;5.30;;;2.37;;
3217;SDS011;1621;49.702;8.618;2023-07-31T04:19:40;6.10;;;2.63;;
3217;SDS011;1621;49.702;8.618;2023-07-31T04:22:06;6.53;;;2.90;;
3217;SDS011;1621;49.702;8.618;2023-07-31T04:24:33;4.30;;;2.37;;
3217;SDS011;1621;49.702;8.618;2023-07-31T04:26:59;6.00;;;2.20;;
3217;SDS011;1621;49.702;8.618;2023-07-31T04:29:25;5.23;;;2.40;;
3217;SDS011;1621;49.702;8.618;2023-07-31T04:31:51;5.50;;;2.50;;
3217;SDS011;1621;49.702;8.618;2023-07-31T04:34:19;5.03;;;2.70;;
3217;SDS011;1621;49.702;8.618;2023-07-31T04:36:45;6.23;;;3.10;;
3217;SDS011;1621;49.702;8.618;2023-07-31T04:39:11;7.53;;;3.10;;
3217;SDS011;1621;49.702;8.618;2023-07-31T04:41:38;5.33;;;2.67;;
3217;SDS011;1621;49.702;8.618;2023-07-31T04:44:04;7.00;;;2.77;;
3217;SDS011;1621;49.702;8.618;2023-07-31T04:46:30;6.97;;;2.97;;
3217;SDS011;1621;49.702;8.618;2023-07-31T04:48:56;9.97;;;2.80;;
3217;SDS011;1621;49.702;8.618;2023-07-31T04:51:24;5.20;;;2.50;;
3217;SDS011;1621;49.702;8.618;2023-07-31T04:53:50;10.20;;;2.60;;
3217;SDS011;1621;49.702;8.618;2023-07-31T04:56:17;7.73;;;3.47;;
3217;SDS011;1621;49.702;8.618;2023-07-31T04:58:43;5.97;;;2.77;;
3217;SDS011;1621;49.702;8.618;2023-07-31T05:01:09;7.77;;;3.20;;
3217;SDS011;1621;49.702;8.618;2023-07-31T05:03:35;6.50;;;2.43;;
3217;SDS011;1621;49.702;8.618;2023-07-31T05:06:02;5.50;;;2.50;;
3217;SDS011;1621;49.702;8.618;2023-07-31T05:08:29;6.53;;;2.97;;
3217;SDS011;1621;49.702;8.618;2023-07-31T05:10:55;6.60;;;2.90;;
3217;SDS011;1621;49.702;8.618;2023-07-31T05:13:22;6.50;;;3.00;;
3217;SDS011;1621;49.702;8.618;2023-07-31T05:15:48;5.93;;;2.90;;
3217;SDS011;1621;49.702;8.618;2023-07-31T05:18:15;5.40;;;2.47;;
3217;SDS011;1621;49.702;8.618;2023-07-31T05:20:41;5.37;;;2.97;;
3217;SDS011;1621;49.702;8.618;2023-07-31T05:23:08;7.93;;;2.70;;
3217;SDS011;1621;49.702;8.618;2023-07-31T05:25:35;8.67;;;2.87;;
3217;SDS011;1621;49.702;8.618;2023-07-31T05:28:02;4.40;;;2.30;;
3217;SDS011;1621;49.702;8.618;2023-07-31T05:30:29;8.23;;;3.00;;
3217;SDS011;1621;49.702;8.618;2023-07-31T05:32:55;6.17;;;2.60;;
3217;SDS011;1621;49.702;8.618;2023-07-31T05:35:21;7.73;;;2.70;;
3217;SDS011;1621;49.702;8.618;2023-07-31T05:37:48;6.07;;;2.80;;
3217;SDS011;1621;49.702;8.618;2023-07-31T05:40:14;8.70;;;2.63;;
3217;SDS011;1621;49.702;8.618;2023-07-31T05:42:42;5.13;;;2.50;;
3217;SDS011;1621;49.702;8.618;2023-07-31T05:45:08;8.17;;;2.80;;
3217;SDS011;1621;49.702;8.618;2023-07-31T05:47:35;6.37;;;2.77;;
3217;SDS011;1621;49.702;8.618;2023-07-31T05:50:01;5.20;;;2.53;;
3217;SDS011;1621;49.702;8.618;2023-07-31T05:52:27;7.60;;;3.10;;
3217;SDS011;1621;49.702;8.618;2023-07-31T05:54:54;4.57;;;2.43;;
3217;SDS011;1621;49.702;8.618;2023-07-31T05:57:21;6.53;;;2.83;;
3217;SDS011;1621;49.702;8.618;2023-07-31T05:59:48;6.30;;;2.57;;
3217;SDS011;1621;49.702;8.618;2023-07-31T06:02:15;6.37;;;3.30;;
3217;SDS011;1621;49.702;8.618;2023-07-31T06:04:41;6.07;;;2.60;;
3217;SDS011;1621;49.702;8.618;2023-07-31T06:07:07;5.73;;;2.63;;
3217;SDS011;1621;49.702;8.618;2023-07-31T06:09:33;5.67;;;2.40;;
3217;SDS011;1621;49.702;8.618;2023-07-31T06:12:00;6.67;;;2.90;;
3217;SDS011;1621;49.702;8.618;2023-07-31T06:14:26;10.20;;;2.87;;
3217;SDS011;1621;49.702;8.618;2023-07-31T06:16:54;7.37;;;3.33;;
3217;SDS011;1621;49.702;8.618;2023-07-31T06:19:20;5.97;;;2.97;;
3217;SDS011;1621;49.702;8.618;2023-07-31T06:21:46;6.20;;;2.70;;
3217;SDS011;1621;49.702;8.618;2023-07-31T06:24:12;9.47;;;3.10;;
3217;SDS011;1621;49.702;8.618;2023-07-31T06:26:43;8.97;;;3.57;;
3217;SDS011;1621;49.702;8.618;2023-07-31T06:29:10;7.23;;;2.80;;
3217;SDS011;1621;49.702;8.618;2023-07-31T06:31:36;8.20;;;2.77;;
3217;SDS011;1621;49.702;8.618;2023-07-31T06:34:04;5.67;;;2.20;;
3217;SDS011;1621;49.702;8.618;2023-07-31T06:36:30;5.87;;;2.97;;
3217;SDS011;1621;49.702;8.618;2023-07-31T06:38:56;6.60;;;3.13;;
3217;SDS011;1621;49.702;8.618;2023-07-31T06:41:22;7.20;;;3.67;;
3217;SDS011;1621;49.702;8.618;2023-07-31T06:43:49;6.20;;;3.20;;
3217;SDS011;1621;49.702;8.618;2023-07-31T06:46:15;10.03;;;2.80;;
3217;SDS011;1621;49.702;8.618;2023-07-31T06:48:41;7.77;;;3.00;;
3217;SDS011;1621;49.702;8.618;2023-07-31T06:51:09;7.13;;;2.80;;
3217;SDS011;1621;49.702;8.618;2023-07-31T06:53:35;8.40;;;2.90;;
3217;SDS011;1621;49.702;8.618;2023-07-31T06:56:01;4.43;;;2.60;;
3217;SDS011;1621;49.702;8.618;2023-07-31T06:58:28;8.67;;;2.70;;
3217;SDS011;1621;49.702;8.618;2023-07-31T07:00:54;5.63;;;2.63;;
3217;SDS011;1621;49.702;8.618;2023-07-31T07:03:20;5.90;;;2.97;;
3217;SDS011;1621;49.702;8.618;2023-07-31T07:05:46;7.23;;;3.33;;
3217;SDS011;1621;49.702;8.618;2023-07-31T07:08:14;8.60;;;3.20;;
3217;SDS011;1621;49.702;8.618;2023-07-31T07:10:41;6.97;;;3.73;;
3217;SDS011;1621;49.702;8.618;2023-07-31T07:13:08;5.60;;;2.63;;
3217;SDS011;1621;49.702;8.618;2023-07-31T07:15:34;7.97;;;3.00;;
3217;SDS011;1621;49.702;8.618;2023-07-31T07:18:00;7.77;;;2.63;;
3217;SDS011;1621;49.702;8.618;2023-07-31T07:20:28;10.03;;;3.90;;
3217;SDS011;1621;49.702;8.618;2023-07-31T07:22:54;6.53;;;2.70;;
3217;SDS011;1621;49.702;8.618;2023-07-31T07:25:22;8.87;;;2.80;;
3217;SDS011;1621;49.702;8.618;2023-07-31T07:27:48;15.67;;;3.50;;
3217;SDS011;1621;49.702;8.618;2023-07-31T07:30:14;10.17;;;3.77;;
3217;SDS011;1621;49.702;8.618;2023-07-31T07:32:41;7.80;;;3.20;;
3217;SDS011;1621;49.702;8.618;2023-07-31T07:35:07;9.93;;;2.90;;
3217;SDS011;1621;49.702;8.618;2023-07-31T07:37:33;5.53;;;2.90;;
3217;SDS011;1621;49.702;8.618;2023-07-31T07:40:00;7.57;;;3.10;;
3217;SDS011;1621;49.702;8.618;2023-07-31T07:42:27;5.80;;;2.97;;
3217;SDS011;1621;49.702;8.618;2023-07-31T07:44:53;9.10;;;3.47;;
3217;SDS011;1621;49.702;8.618;2023-07-31T07:47:20;6.00;;;2.27;;
3217;SDS011;1621;49.702;8.618;2023-07-31T07:49:46;8.40;;;2.90;;
3217;SDS011;1621;49.702;8.618;2023-07-31T07:52:12;6.90;;;3.13;;
3217;SDS011;1621;49.702;8.618;2023-07-31T07:54:38;6.20;;;2.73;;
3217;SDS011;1621;49.702;8.618;2023-07-31T07:57:05;5.93;;;2.50;;
3217;SDS011;1621;49.702;8.618;2023-07-31T07:59:32;5.90;;;2.90;;
3217;SDS011;1621;49.702;8.618;2023-07-31T08:01:58;7.27;;;3.00;;
3217;SDS011;1621;49.702;8.618;2023-07-31T08:04:25;11.80;;;3.10;;
3217;SDS011;1621;49.702;8.618;2023-07-31T08:06:51;5.47;;;2.67;;
3217;SDS011;1621;49.702;8.618;2023-07-31T08:09:17;7.90;;;3.03;;
3217;SDS011;1621;49.702;8.618;2023-07-31T08:11:43;5.70;;;2.60;;
3217;SDS011;1621;49.702;8.618;2023-07-31T08:14:10;5.63;;;2.30;;
3217;SDS011;1621;49.702;8.618;2023-07-31T08:16:37;8.00;;;2.60;;
3217;SDS011;1621;49.702;8.618;2023-07-31T08:19:03;5.67;;;2.73;;
3217;SDS011;1621;49.702;8.618;2023-07-31T08:21:30;7.60;;;3.10;;
3217;SDS011;1621;49.702;8.618;2023-07-31T08:23:57;5.40;;;2.73;;
3217;SDS011;1621;49.702;8.618;2023-07-31T08:26:23;7.40;;;2.83;;
3217;SDS011;1621;49.702;8.618;2023-07-31T08:28:49;5.00;;;2.70;;
3217;SDS011;1621;49.702;8.618;2023-07-31T08:31:16;11.67;;;2.77;;
3217;SDS011;1621;49.702;8.618;2023-07-31T08:33:44;5.00;;;2.60;;
3217;SDS011;1621;49.702;8.618;2023-07-31T08:36:11;5.93;;;2.73;;
3217;SDS011;1621;49.702;8.618;2023-07-31T08:38:37;6.93;;;3.00;;
3217;SDS011;1621;49.702;8.618;2023-07-31T08:41:03;5.70;;;2.70;;
3217;SDS011;1621;49.702;8.618;2023-07-31T08:43:30;6.20;;;2.63;;
3217;SDS011;1621;49.702;8.618;2023-07-31T08:45:57;7.73;;;3.50;;
3217;SDS011;1621;49.702;8.618;2023-07-31T08:48:23;6.03;;;2.70;;
3217;SDS011;1621;49.702;8.618;2023-07-31T08:50:51;5.20;;;2.90;;
3217;SDS011;1621;49.702;8.618;2023-07-31T08:53:17;7.70;;;2.70;;
3217;SDS011;1621;49.702;8.618;2023-07-31T08:55:44;6.80;;;2.93;;
3217;SDS011;1621;49.702;8.618;2023-07-31T08:58:10;6.20;;;2.73;;
3217;SDS011;1621;49.702;8.618;2023-07-31T09:00:38;6.33;;;2.70;;
3217;SDS011;1621;49.702;8.618;2023-07-31T09:03:08;7.20;;;3.00;;
3217;SDS011;1621;49.702;8.618;2023-07-31T09:05:35;7.40;;;3.00;;
3217;SDS011;1621;49.702;8.618;2023-07-31T09:08:03;6.10;;;2.70;;
3217;SDS011;1621;49.702;8.618;2023-07-31T09:10:30;8.13;;;2.80;;
3217;SDS011;1621;49.702;8.618;2023-07-31T09:12:56;9.73;;;3.30;;
3217;SDS011;1621;49.702;8.618;2023-07-31T09:15:23;5.17;;;2.70;;
3217;SDS011;1621;49.702;8.618;2023-07-31T09:17:52;5.37;;;3.00;;
3217;SDS011;1621;49.702;8.618;2023-07-31T09:20:24;6.40;;;2.90;;
3217;SDS011;1621;49.702;8.618;2023-07-31T09:22:50;6.63;;;3.13;;
3217;SDS011;1621;49.702;8.618;2023-07-31T09:25:19;4.50;;;2.53;;
3217;SDS011;1621;49.702;8.618;2023-07-31T09:27:46;6.47;;;2.67;;
3217;SDS011;1621;49.702;8.618;2023-07-31T09:30:12;6.50;;;3.27;;
3217;SDS011;1621;49.702;8.618;2023-07-31T09:32:39;6.50;;;2.70;;
3217;SDS011;1621;49.702;8.618;2023-07-31T09:35:12;7.27;;;3.27;;
3217;SDS011;1621;49.702;8.618;2023-07-31T09:37:39;7.40;;;2.97;;
3217;SDS011;1621;49.702;8.618;2023-07-31T09:40:05;9.87;;;2.73;;
3217;SDS011;1621;49.702;8.618;2023-07-31T09:42:33;9.30;;;3.00;;
3217;SDS011;1621;49.702;8.618;2023-07-31T09:45:06;6.10;;;2.70;;
3217;SDS011;1621;49.702;8.618;2023-07-31T09:47:32;4.43;;;2.37;;
3217;SDS011;1621;49.702;8.618;2023-07-31T09:49:59;5.97;;;2.80;;
3217;SDS011;1621;49.702;8.618;2023-07-31T09:52:25;6.07;;;3.00;;
3217;SDS011;1621;49.702;8.618;2023-07-31T09:54:51;7.60;;;3.13;;
3217;SDS011;1621;49.702;8.618;2023-07-31T09:57:18;5.87;;;3.17;;
3217;SDS011;1621;49.702;8.618;2023-07-31T09:59:48;7.57;;;2.97;;
3217;SDS011;1621;49.702;8.618;2023-07-31T10:02:15;6.00;;;2.87;;
3217;SDS011;1621;49.702;8.618;2023-07-31T10:04:44;11.57;;;3.03;;
3217;SDS011;1621;49.702;8.618;2023-07-31T10:07:11;6.63;;;3.03;;
3217;SDS011;1621;49.702;8.618;2023-07-31T10:09:37;8.80;;;2.70;;
3217;SDS011;1621;49.702;8.618;2023-07-31T10:12:04;5.87;;;2.60;;
3217;SDS011;1621;49.702;8.618;2023-07-31T10:14:34;5.47;;;3.27;;
3217;SDS011;1621;49.702;8.618;2023-07-31T10:17:02;7.70;;;3.40;;
3217;SDS011;1621;49.702;8.618;2023-07-31T10:19:29;5.77;;;3.00;;
3217;SDS011;1621;49.702;8.618;2023-07-31T10:21:56;7.00;;;2.73;;
3217;SDS011;1621;49.702;8.618;2023-07-31T10:24:23;6.90;;;2.90;;
3217;SDS011;1621;49.702;8.618;2023-07-31T10:26:50;16.10;;;3.00;;
3217;SDS011;1621;49.702;8.618;2023-07-31T10:29:17;8.87;;;3.27;;
3217;SDS011;1621;49.702;8.618;2023-07-31T10:31:45;6.47;;;2.53;;
3217;SDS011;1621;49.702;8.618;2023-07-31T10:34:13;5.83;;;2.97;;
3217;SDS011;1621;49.702;8.618;2023-07-31T10:36:39;7.60;;;3.40;;
3217;SDS011;1621;49.702;8.618;2023-07-31T10:39:06;8.70;;;3.93;;
3217;SDS011;1621;49.702;8.618;2023-07-31T10:41:52;7.03;;;3.50;;
3217;SDS011;1621;49.702;8.618;2023-07-31T10:44:18;11.20;;;3.87;;
3217;SDS011;1621;49.702;8.618;2023-07-31T10:46:45;8.40;;;3.23;;
3217;SDS011;1621;49.702;8.618;2023-07-31T10:49:13;7.83;;;3.23;;
3217;SDS011;1621;49.702;8.618;2023-07-31T10:51:47;6.23;;;2.97;;
3217;SDS011;1621;49.702;8.618;2023-07-31T10:54:14;6.07;;;2.87;;
3217;SDS011;1621;49.702;8.618;2023-07-31T10:56:44;6.80;;;3.43;;
3217;SDS011;1621;49.702;8.618;2023-07-31T10:59:11;7.50;;;3.07;;
3217;SDS011;1621;49.702;8.618;2023-07-31T11:01:51;5.93;;;3.53;;
3217;SDS011;1621;49.702;8.618;2023-07-31T11:04:22;9.00;;;3.53;;
3217;SDS011;1621;49.702;8.618;2023-07-31T11:06:59;7.67;;;3.23;;
3217;SDS011;1621;49.702;8.618;2023-07-31T11:09:29;5.60;;;3.10;;
3217;SDS011;1621;49.702;8.618;2023-07-31T11:11:56;9.00;;;3.40;;
3217;SDS011;1621;49.702;8.618;2023-07-31T11:14:23;7.67;;;3.40;;
3217;SDS011;1621;49.702;8.618;2023-07-31T11:16:49;6.77;;;3.03;;
3217;SDS011;1621;49.702;8.618;2023-07-31T11:19:20;7.30;;;3.50;;
3217;SDS011;1621;49.702;8.618;2023-07-31T11:21:48;6.77;;;3.23;;
3217;SDS011;1621;49.702;8.618;2023-07-31T11:24:14;6.43;;;3.50;;
3217;SDS011;1621;49.702;8.618;2023-07-31T11:26:47;9.33;;;3.20;;
3217;SDS011;1621;49.702;8.618;2023-07-31T11:29:13;5.27;;;3.30;;
3217;SDS011;1621;49.702;8.618;2023-07-31T11:31:41;7.23;;;3.23;;
3217;SDS011;1621;49.702;8.618;2023-07-31T11:34:08;6.93;;;3.70;;
3217;SDS011;1621;49.702;8.618;2023-07-31T11:36:34;8.30;;;4.43;;
3217;SDS011;1621;49.702;8.618;2023-07-31T11:39:05;6.90;;;3.67;;
3217;SDS011;1621;49.702;8.618;2023-07-31T11:41:32;9.47;;;3.40;;
3217;SDS011;1621;49.702;8.618;2023-07-31T11:43:59;6.27;;;3.20;;
3217;SDS011;1621;49.702;8.618;2023-07-31T11:46:25;6.07;;;3.23;;
3217;SDS011;1621;49.702;8.618;2023-07-31T11:48:51;8.00;;;3.40;;
3217;SDS011;1621;49.702;8.618;2023-07-31T11:51:17;6.10;;;3.03;;
3217;SDS011;1621;49.702;8.618;2023-07-31T11:53:47;6.00;;;3.77;;
3217;SDS011;1621;49.702;8.618;2023-07-31T11:56:18;6.20;;;3.70;;
3217;SDS011;1621;49.702;8.618;2023-07-31T11:58:44;7.70;;;3.60;;
3217;SDS011;1621;49.702;8.618;2023-07-31T12:01:12;8.97;;;3.90;;
3217;SDS011;1621;49.702;8.618;2023-07-31T12:03:40;9.63;;;3.70;;
3217;SDS011;1621;49.702;8.618;2023-07-31T12:06:08;6.53;;;3.30;;
3217;SDS011;1621;49.702;8.618;2023-07-31T12:08:34;7.10;;;3.97;;
3217;SDS011;1621;49.702;8.618;2023-07-31T12:11:02;6.20;;;3.20;;
3217;SDS011;1621;49.702;8.618;2023-07-31T12:13:31;7.93;;;4.07;;
3217;SDS011;1621;49.702;8.618;2023-07-31T12:15:58;9.23;;;3.90;;
3217;SDS011;1621;49.702;8.618;2023-07-31T12:18:25;7.83;;;3.30;;
3217;SDS011;1621;49.702;8.618;2023-07-31T12:20:53;7.03;;;3.20;;
3217;SDS011;1621;49.702;8.618;2023-07-31T12:23:20;7.90;;;3.83;;
3217;SDS011;1621;49.702;8.618;2023-07-31T12:25:59;7.77;;;2.70;;
3217;SDS011;1621;49.702;8.618;2023-07-31T12:28:26;6.03;;;3.40;;
3217;SDS011;1621;49.702;8.618;2023-07-31T12:30:56;6.30;;;3.30;;
3217;SDS011;1621;49.702;8.618;2023-07-31T12:33:22;9.53;;;3.27;;
3217;SDS011;1621;49.702;8.618;2023-07-31T12:35:49;7.70;;;3.50;;
3217;SDS011;1621;49.702;8.618;2023-07-31T12:38:15;6.40;;;3.00;;
3217;SDS011;1621;49.702;8.618;2023-07-31T12:40:41;10.43;;;3.20;;
3217;SDS011;1621;49.702;8.618;2023-07-31T12:43:08;7.07;;;3.30;;
3217;SDS011;1621;49.702;8.618;2023-07-31T12:45:34;6.00;;;3.27;;
3217;SDS011;1621;49.702;8.618;2023-07-31T12:48:02;6.10;;;3.03;;
3217;SDS011;1621;49.702;8.618;2023-07-31T12:50:29;5.90;;;3.17;;
3217;SDS011;1621;49.702;8.618;2023-07-31T12:52:55;6.03;;;3.00;;
3217;SDS011;1621;49.702;8.618;2023-07-31T12:55:22;6.90;;;2.90;;
3217;SDS011;1621;49.702;8.618;2023-07-31T12:57:48;9.30;;;3.57;;
3217;SDS011;1621;49.702;8.618;2023-07-31T13:00:15;7.13;;;3.13;;
3217;SDS011;1621;49.702;8.618;2023-07-31T13:02:41;7.57;;;3.40;;
3217;SDS011;1621;49.702;8.618;2023-07-31T13:05:09;6.30;;;2.97;;
3217;SDS011;1621;49.702;8.618;2023-07-31T13:07:35;5.90;;;3.00;;
3217;SDS011;1621;49.702;8.618;2023-07-31T13:10:02;8.13;;;3.20;;
3217;SDS011;1621;49.702;8.618;2023-07-31T13:12:28;6.50;;;2.93;;
3217;SDS011;1621;49.702;8.618;2023-07-31T13:14:54;6.13;;;2.90;;
3217;SDS011;1621;49.702;8.618;2023-07-31T13:17:20;9.67;;;3.50;;
3217;SDS011;1621;49.702;8.618;2023-07-31T13:19:47;5.03;;;2.83;;
3217;SDS011;1621;49.702;8.618;2023-07-31T13:22:14;7.13;;;3.23;;
3217;SDS011;1621;49.702;8.618;2023-07-31T13:24:41;7.13;;;2.90;;
3217;SDS011;1621;49.702;8.618;2023-07-31T13:27:07;4.93;;;2.90;;
3217;SDS011;1621;49.702;8.618;2023-07-31T13:29:33;8.57;;;3.30;;
3217;SDS011;1621;49.702;8.618;2023-07-31T13:32:00;4.60;;;2.63;;
3217;SDS011;1621;49.702;8.618;2023-07-31T13:34:26;7.97;;;3.33;;
3217;SDS011;1621;49.702;8.618;2023-07-31T13:36:53;8.37;;;3.33;;
3217;SDS011;1621;49.702;8.618;2023-07-31T13:39:21;9.60;;;3.50;;
3217;SDS011;1621;49.702;8.618;2023-07-31T13:41:47;6.17;;;3.30;;
3217;SDS011;1621;49.702;8.618;2023-07-31T13:44:14;7.37;;;3.40;;
3217;SDS011;1621;49.702;8.618;2023-07-31T13:46:40;4.93;;;3.00;;
3217;SDS011;1621;49.702;8.618;2023-07-31T13:49:06;10.50;;;3.57;;
3217;SDS011;1621;49.702;8.618;2023-07-31T13:51:33;6.50;;;3.00;;
3217;SDS011;1621;49.702;8.618;2023-07-31T13:53:59;7.07;;;3.00;;
3217;SDS011;1621;49.702;8.618;2023-07-31T13:56:27;6.97;;;3.00;;
3217;SDS011;1621;49.702;8.618;2023-07-31T13:58:53;5.23;;;2.70;;
3217;SDS011;1621;49.702;8.618;2023-07-31T14:01:19;7.67;;;3.00;;
3217;SDS011;1621;49.702;8.618;2023-07-31T14:03:45;4.70;;;2.90;;
3217;SDS011;1621;49.702;8.618;2023-07-31T14:06:12;5.70;;;2.97;;
3217;SDS011;1621;49.702;8.618;2023-07-31T14:08:38;5.60;;;3.10;;
3217;SDS011;1621;49.702;8.618;2023-07-31T14:11:04;6.07;;;3.33;;
3217;SDS011;1621;49.702;8.618;2023-07-31T14:13:32;4.87;;;3.10;;
3217;SDS011;1621;49.702;8.618;2023-07-31T14:15:58;7.50;;;3.17;;
3217;SDS011;1621;49.702;8.618;2023-07-31T14:18:24;8.67;;;3.33;;
3217;SDS011;1621;49.702;8.618;2023-07-31T14:20:51;10.47;;;3.47;;
3217;SDS011;1621;49.702;8.618;2023-07-31T14:23:17;6.80;;;3.07;;
3217;SDS011;1621;49.702;8.618;2023-07-31T14:25:44;7.93;;;3.30;;
3217;SDS011;1621;49.702;8.618;2023-07-31T14:28:11;5.80;;;2.60;;
3217;SDS011;1621;49.702;8.618;2023-07-31T14:30:38;6.63;;;3.20;;
3217;SDS011;1621;49.702;8.618;2023-07-31T14:33:05;5.63;;;2.80;;
3217;SDS011;1621;49.702;8.618;2023-07-31T14:35:31;5.30;;;2.80;;
3217;SDS011;1621;49.702;8.618;2023-07-31T14:37:57;6.33;;;3.10;;
3217;SDS011;1621;49.702;8.618;2023-07-31T14:40:24;8.23;;;3.73;;
3217;SDS011;1621;49.702;8.618;2023-07-31T14:42:50;9.00;;;3.47;;
3217;SDS011;1621;49.702;8.618;2023-07-31T14:45:16;7.43;;;3.40;;
3217;SDS011;1621;49.702;8.618;2023-07-31T14:47:44;6.30;;;3.17;;
3217;SDS011;1621;49.702;8.618;2023-07-31T14:50:10;6.97;;;3.10;;
3217;SDS011;1621;49.702;8.618;2023-07-31T14:52:36;6.87;;;3.20;;
3217;SDS011;1621;49.702;8.618;2023-07-31T14:55:03;9.37;;;3.20;;
3217;SDS011;1621;49.702;8.618;2023-07-31T14:57:29;8.23;;;3.00;;
3217;SDS011;1621;49.702;8.618;2023-07-31T14:59:56;5.97;;;2.97;;
3217;SDS011;1621;49.702;8.618;2023-07-31T15:02:22;7.00;;;3.37;;
3217;SDS011;1621;49.702;8.618;2023-07-31T15:04:50;8.70;;;3.80;;
3217;SDS011;1621;49.702;8.618;2023-07-31T15:07:16;5.70;;;2.80;;
3217;SDS011;1621;49.702;8.618;2023-07-31T15:09:42;7.40;;;2.90;;
3217;SDS011;1621;49.702;8.618;2023-07-31T15:12:09;6.97;;;2.97;;
3217;SDS011;1621;49.702;8.618;2023-07-31T15:14:35;7.90;;;3.50;;